HYA weather

Barnstable Municipal Boardman Polando Field
Hyannis, Massachusetts, United States

Public forecast

Using degrees Fahrenheit for public forecast. Weather courtesy of forecast.io.

Current aviation weather report (METAR) for Barnstable Municipal Boardman Polando Field

Retrieved 2020/06/05 09:56 UTC (11 minutes ago):

KHYA 050956Z 26006KT 8SM BKN110 20/18 A2989 RMK AO2 RAB20E52 SLP123 P0000 T02000178

Aviation forecast (TAF) for Barnstable Municipal Boardman Polando Field

Retrieved 2020/06/05 06:27 UTC (4 hours ago):

TAF KHYA 050525Z 0506/0606 21006KT P6SM BKN150 FM051100 20005KT 3SM BR VCSH OVC010 FM051300 20009KT 6SM BR VCSH OVC015 FM051700 21010G21KT 5SM BR VCSH OVC025 FM052300 21011G19KT 3SM -SHRA BR OVC008 FM060400 21008KT 1SM -SHRA BR OVC003 WS020/23035KT